Time;durP1;ratioP1;P1;durP2;ratioP2;P2;SDS_P1;SDS_P2;PMS_P1;PMS_P2;Temp;Humidity;BMP_temperature;BMP_pressure;BME280_temperature;BME280_humidity;BME280_pressure;Samples;Min_cycle;Max_cycle;Signal;HPM_P1;HPM_P2
2022/09/22 00:04:19;;;;;;;8.57;6.10;;;;;;;;;;12922676;23;20020;-80
2022/09/22 00:09:20;;;;;;;8.50;5.85;;;;;;;;;;12921401;23;20451;-81
2022/09/22 00:14:22;;;;;;;7.72;5.95;;;;;;;;;;12923296;23;20373;-80
2022/09/22 00:19:24;;;;;;;8.38;6.38;;;;;;;;;;12921271;23;20325;-81
2022/09/22 00:24:26;;;;;;;7.93;6.00;;;;;;;;;;12936772;23;20099;-83
2022/09/22 00:29:27;;;;;;;8.98;6.65;;;;;;;;;;12936746;23;20046;-83
2022/09/22 00:34:29;;;;;;;7.32;5.82;;;;;;;;;;12939503;23;20020;-82
2022/09/22 00:39:30;;;;;;;7.53;5.40;;;;;;;;;;12974514;22;20019;-83
2022/09/22 00:44:33;;;;;;;10.00;6.18;;;;;;;;;;12978230;22;20030;-83
2022/09/22 00:49:53;;;;;;;8.43;6.53;;;;;;;;;;12947759;22;20016;-79
2022/09/22 00:54:55;;;;;;;7.20;5.63;;;;;;;;;;12920150;23;20036;-81
2022/09/22 00:59:57;;;;;;;5.38;4.88;;;;;;;;;;12921060;23;20009;-80
2022/09/22 01:05:00;;;;;;;7.40;5.38;;;;;;;;;;12948355;23;20059;-85
2022/09/22 01:10:02;;;;;;;6.72;5.45;;;;;;;;;;12947934;22;20028;-84
2022/09/22 01:15:06;;;;;;;7.23;5.57;;;;;;;;;;12977881;22;20004;-81
2022/09/22 01:20:24;;;;;;;7.30;5.78;;;;;;;;;;12963316;23;20571;-80
2022/09/22 01:25:44;;;;;;;7.32;5.47;;;;;;;;;;12940970;22;20071;-82
2022/09/22 01:30:53;;;;;;;6.80;5.35;;;;;;;;;;12930847;23;20027;-83
2022/09/22 01:36:01;;;;;;;7.22;5.00;;;;;;;;;;12934609;23;20103;-83
2022/09/22 01:41:25;;;;;;;7.15;5.00;;;;;;;;;;12906120;23;20016;-83
2022/09/22 01:46:28;;;;;;;8.27;4.80;;;;;;;;;;12921864;22;20023;-84
2022/09/22 01:51:32;;;;;;;8.02;5.13;;;;;;;;;;12943942;23;20238;-83
2022/09/22 01:56:34;;;;;;;6.57;4.78;;;;;;;;;;12912218;23;20000;-85
2022/09/22 02:01:44;;;;;;;5.80;4.32;;;;;;;;;;12920930;23;20023;-85
2022/09/22 02:07:05;;;;;;;6.28;4.97;;;;;;;;;;12911418;23;20008;-85
2022/09/22 02:12:05;;;;;;;5.03;4.45;;;;;;;;;;12939663;23;20050;-82
2022/09/22 02:17:06;;;;;;;5.90;4.60;;;;;;;;;;12942310;23;20028;-83
2022/09/22 02:22:07;;;;;;;6.17;4.60;;;;;;;;;;12910831;22;20008;-79
2022/09/22 02:27:12;;;;;;;5.50;4.65;;;;;;;;;;12942869;22;20290;-80
2022/09/22 02:32:14;;;;;;;6.15;4.88;;;;;;;;;;12945639;22;20032;-79
2022/09/22 02:37:41;;;;;;;7.38;4.75;;;;;;;;;;12932490;23;20028;-80
2022/09/22 02:42:46;;;;;;;6.00;4.88;;;;;;;;;;12920736;23;20016;-79
2022/09/22 02:48:16;;;;;;;5.38;4.10;;;;;;;;;;12932757;23;20020;-79
2022/09/22 02:53:17;;;;;;;6.03;4.32;;;;;;;;;;12903986;22;20526;-80
2022/09/22 02:58:17;;;;;;;4.68;4.15;;;;;;;;;;12898833;23;20051;-81
2022/09/22 03:03:17;;;;;;;4.70;4.10;;;;;;;;;;12938747;23;20012;-83
2022/09/22 03:08:18;;;;;;;6.30;4.05;;;;;;;;;;12912005;23;20267;-83
2022/09/22 03:13:18;;;;;;;4.70;4.30;;;;;;;;;;12932390;23;20036;-80
2022/09/22 03:18:19;;;;;;;5.57;4.97;;;;;;;;;;12927040;23;20725;-78
2022/09/22 03:23:19;;;;;;;5.67;4.17;;;;;;;;;;12937491;23;20262;-80
2022/09/22 03:28:20;;;;;;;5.70;4.30;;;;;;;;;;12931908;23;20602;-77
2022/09/22 03:33:20;;;;;;;4.93;4.10;;;;;;;;;;12924565;23;20314;-82
2022/09/22 03:38:21;;;;;;;4.50;3.87;;;;;;;;;;12904764;23;20015;-78
2022/09/22 03:43:21;;;;;;;6.75;4.70;;;;;;;;;;12933035;22;20286;-80
2022/09/22 03:48:22;;;;;;;6.20;5.00;;;;;;;;;;12974431;22;20019;-81
2022/09/22 03:53:22;;;;;;;7.85;5.78;;;;;;;;;;12961772;22;20062;-79
2022/09/22 03:58:22;;;;;;;6.82;4.97;;;;;;;;;;12934840;22;20057;-80
2022/09/22 04:03:23;;;;;;;7.70;5.65;;;;;;;;;;12903513;22;20000;-78
2022/09/22 04:08:23;;;;;;;7.47;5.95;;;;;;;;;;12913756;22;20036;-80
2022/09/22 04:13:24;;;;;;;7.20;5.93;;;;;;;;;;12889254;23;20305;-80
2022/09/22 04:18:27;;;;;;;9.52;5.13;;;;;;;;;;12894206;23;20250;-82
2022/09/22 04:23:28;;;;;;;12.35;4.85;;;;;;;;;;12897267;23;20022;-81
2022/09/22 04:28:30;;;;;;;9.30;5.25;;;;;;;;;;12903061;23;20028;-81
2022/09/22 04:33:31;;;;;;;9.95;5.82;;;;;;;;;;12879021;23;20020;-79
2022/09/22 04:38:32;;;;;;;8.07;5.35;;;;;;;;;;12862509;23;20015;-81
2022/09/22 04:43:32;;;;;;;9.65;5.70;;;;;;;;;;12864174;23;20044;-81
2022/09/22 04:48:32;;;;;;;13.77;5.43;;;;;;;;;;12862749;23;20013;-80
2022/09/22 04:53:33;;;;;;;6.60;5.22;;;;;;;;;;12857956;23;20256;-80
2022/09/22 04:58:35;;;;;;;8.30;5.35;;;;;;;;;;12856214;23;20000;-79
2022/09/22 05:03:37;;;;;;;9.35;6.00;;;;;;;;;;12857329;23;20526;-79
2022/09/22 05:08:38;;;;;;;13.23;6.87;;;;;;;;;;12874127;23;20027;-81
2022/09/22 05:13:39;;;;;;;16.57;6.50;;;;;;;;;;12895410;22;20036;-81
2022/09/22 05:18:40;;;;;;;67.68;9.98;;;;;;;;;;12898802;23;20255;-81
2022/09/22 05:23:40;;;;;;;31.27;8.67;;;;;;;;;;12901933;23;20090;-81
2022/09/22 05:28:40;;;;;;;30.42;8.13;;;;;;;;;;12924477;22;20714;-80
2022/09/22 05:33:41;;;;;;;11.00;6.10;;;;;;;;;;12896474;23;20008;-80
2022/09/22 05:38:41;;;;;;;9.05;6.35;;;;;;;;;;12920427;23;20035;-80
2022/09/22 05:43:42;;;;;;;15.52;7.30;;;;;;;;;;12920963;22;20024;-81
2022/09/22 05:48:42;;;;;;;10.20;6.93;;;;;;;;;;12922384;23;20036;-81
2022/09/22 05:53:42;;;;;;;18.27;7.90;;;;;;;;;;12923795;22;20034;-81
2022/09/22 05:58:43;;;;;;;12.60;7.23;;;;;;;;;;12896425;23;20300;-81
2022/09/22 06:03:43;;;;;;;10.05;7.32;;;;;;;;;;12897278;23;20324;-82
2022/09/22 06:08:43;;;;;;;13.50;8.10;;;;;;;;;;12947976;22;20046;-82
2022/09/22 06:13:44;;;;;;;12.93;7.20;;;;;;;;;;12919970;23;20012;-79
2022/09/22 06:18:48;;;;;;;12.85;7.30;;;;;;;;;;12917671;23;20106;-78
2022/09/22 06:23:49;;;;;;;9.02;6.50;;;;;;;;;;12920655;23;20012;-79
2022/09/22 06:28:50;;;;;;;8.50;6.88;;;;;;;;;;12905107;23;20020;-80
2022/09/22 06:33:50;;;;;;;8.55;6.47;;;;;;;;;;12882302;23;20462;-79
2022/09/22 06:38:51;;;;;;;8.30;6.57;;;;;;;;;;12925710;23;20004;-80
2022/09/22 06:43:54;;;;;;;15.65;7.47;;;;;;;;;;12921145;22;20008;-79
2022/09/22 06:48:56;;;;;;;8.25;6.82;;;;;;;;;;12930437;22;20016;-79
2022/09/22 06:53:58;;;;;;;8.40;6.40;;;;;;;;;;12954676;22;20004;-81
2022/09/22 06:58:59;;;;;;;8.35;6.82;;;;;;;;;;12952726;23;20112;-81
2022/09/22 07:04:00;;;;;;;7.55;5.78;;;;;;;;;;12906223;23;20020;-80
2022/09/22 07:09:00;;;;;;;7.78;6.47;;;;;;;;;;12920102;23;20027;-81
2022/09/22 07:14:01;;;;;;;6.47;5.77;;;;;;;;;;12918076;23;20019;-80
2022/09/22 07:19:03;;;;;;;8.43;5.97;;;;;;;;;;12890389;23;20255;-81
2022/09/22 07:24:04;;;;;;;7.05;6.35;;;;;;;;;;12894327;23;20077;-79
2022/09/22 07:29:07;;;;;;;8.00;6.82;;;;;;;;;;12934308;23;20020;-80
2022/09/22 07:34:07;;;;;;;7.68;6.90;;;;;;;;;;12930264;23;20012;-80
2022/09/22 07:39:09;;;;;;;8.10;6.75;;;;;;;;;;12918895;23;20292;-82
2022/09/22 07:49:30;;;;;;;7.22;6.30;;;;;;;;;;12920539;23;20027;-79
2022/09/22 07:54:33;;;;;;;7.47;6.55;;;;;;;;;;12891960;22;20016;-78
2022/09/22 07:59:38;;;;;;;;;;;;;;;;;;12926545;23;20016;-82
2022/09/22 08:04:39;;;;;;;7.67;6.70;;;;;;;;;;12893186;23;19918;-80
2022/09/22 08:09:40;;;;;;;9.52;6.97;;;;;;;;;;12922757;23;20056;-81
2022/09/22 08:14:40;;;;;;;8.30;6.75;;;;;;;;;;12922634;23;20009;-80
2022/09/22 08:19:42;;;;;;;8.57;6.45;;;;;;;;;;12918718;23;20482;-79
2022/09/22 08:24:43;;;;;;;9.07;6.68;;;;;;;;;;12918581;23;20008;-78
2022/09/22 08:29:45;;;;;;;7.15;5.95;;;;;;;;;;12920334;23;20020;-78
2022/09/22 08:34:47;;;;;;;8.50;6.25;;;;;;;;;;12907161;23;20000;-79
2022/09/22 08:39:48;;;;;;;7.15;5.70;;;;;;;;;;12936313;23;20012;-78
2022/09/22 08:44:49;;;;;;;6.78;6.13;;;;;;;;;;12896768;23;20043;-78
2022/09/22 08:55:21;;;;;;;5.90;5.20;;;;;;;;;;12918355;23;20023;-78
2022/09/22 09:00:23;;;;;;;10.03;6.63;;;;;;;;;;12917927;22;20012;-75
2022/09/22 09:05:26;;;;;;;6.05;5.45;;;;;;;;;;12891220;23;20024;-77
2022/09/22 09:10:51;;;;;;;7.03;5.93;;;;;;;;;;12936667;22;20020;-80
2022/09/22 09:16:04;;;;;;;7.63;5.38;;;;;;;;;;12896540;22;20012;-82
2022/09/22 09:21:07;;;;;;;6.23;4.93;;;;;;;;;;12887238;23;20008;-76
2022/09/22 09:26:08;;;;;;;5.82;5.13;;;;;;;;;;12915891;23;20590;-77
2022/09/22 09:31:17;;;;;;;6.85;5.03;;;;;;;;;;12890085;23;20024;-78
2022/09/22 09:36:21;;;;;;;6.82;4.82;;;;;;;;;;12916707;22;20020;-77
2022/09/22 09:41:22;;;;;;;5.70;4.20;;;;;;;;;;12917063;23;20016;-77
2022/09/22 09:46:41;;;;;;;7.20;5.43;;;;;;;;;;12917047;23;20016;-77
2022/09/22 09:51:43;;;;;;;7.63;4.15;;;;;;;;;;12920709;22;20340;-79
2022/09/22 09:57:02;;;;;;;8.48;5.68;;;;;;;;;;12894796;23;20016;-81
2022/09/22 10:02:03;;;;;;;6.07;4.45;;;;;;;;;;12924132;22;20055;-79
2022/09/22 10:07:14;;;;;;;5.38;4.20;;;;;;;;;;12924981;23;20020;-79
2022/09/22 10:12:28;;;;;;;5.00;4.15;;;;;;;;;;12921797;23;20098;-79
2022/09/22 10:17:32;;;;;;;4.85;3.80;;;;;;;;;;12923600;22;20014;-80
2022/09/22 10:22:32;;;;;;;4.82;3.97;;;;;;;;;;12945329;22;20056;-79
2022/09/22 10:27:33;;;;;;;5.00;4.13;;;;;;;;;;12905904;23;20015;-80
2022/09/22 10:32:33;;;;;;;4.50;4.10;;;;;;;;;;12938943;23;20235;-79
2022/09/22 10:37:34;;;;;;;2.90;2.70;;;;;;;;;;12961574;23;20242;-81
2022/09/22 10:42:34;;;;;;;3.95;3.20;;;;;;;;;;12905133;22;20073;-80
2022/09/22 10:47:50;;;;;;;3.50;2.42;;;;;;;;;;12915420;22;20050;-80
2022/09/22 10:53:09;;;;;;;6.00;3.90;;;;;;;;;;12922007;23;20012;-80
2022/09/22 10:58:24;;;;;;;5.47;3.90;;;;;;;;;;12920167;23;20344;-82
2022/09/22 11:03:37;;;;;;;5.07;2.83;;;;;;;;;;12921157;23;20063;-81
2022/09/22 11:14:23;;;;;;;4.15;3.05;;;;;;;;;;12925793;22;20012;-81
2022/09/22 11:19:29;;;;;;;4.65;2.30;;;;;;;;;;12895687;23;20012;-80
2022/09/22 11:24:37;;;;;;;2.47;2.20;;;;;;;;;;12923745;23;20008;-78
2022/09/22 11:30:01;;;;;;;3.17;2.20;;;;;;;;;;12911735;23;20031;-81
2022/09/22 11:35:07;;;;;;;2.85;2.60;;;;;;;;;;12947207;23;20046;-81
2022/09/22 11:40:20;;;;;;;2.17;1.95;;;;;;;;;;12922260;23;20507;-80
2022/09/22 11:45:36;;;;;;;2.42;2.15;;;;;;;;;;12921120;22;20107;-78
2022/09/22 11:50:39;;;;;;;2.92;2.30;;;;;;;;;;12923156;23;20024;-81
2022/09/22 11:55:47;;;;;;;3.80;2.28;;;;;;;;;;12925312;23;20424;-77
2022/09/22 12:00:58;;;;;;;2.50;2.30;;;;;;;;;;12909112;23;20084;-81
2022/09/22 12:06:02;;;;;;;2.10;1.90;;;;;;;;;;12953283;23;20072;-83
2022/09/22 12:11:05;;;;;;;3.28;1.60;;;;;;;;;;12929682;23;20028;-83
2022/09/22 12:16:23;;;;;;;1.65;1.42;;;;;;;;;;12921772;23;20101;-80
2022/09/22 12:21:42;;;;;;;2.05;1.50;;;;;;;;;;12920648;22;20711;-75
2022/09/22 12:26:45;;;;;;;2.00;1.40;;;;;;;;;;12916974;23;20302;-75
2022/09/22 12:31:47;;;;;;;2.37;1.60;;;;;;;;;;12917254;23;20016;-75
2022/09/22 12:36:50;;;;;;;2.03;1.58;;;;;;;;;;12916804;23;20012;-76
2022/09/22 12:41:58;;;;;;;1.85;1.38;;;;;;;;;;12917815;23;20016;-73
2022/09/22 12:47:19;;;;;;;1.67;1.20;;;;;;;;;;12916132;23;20008;-78
2022/09/22 12:52:38;;;;;;;2.58;1.20;;;;;;;;;;12916157;23;20046;-75
2022/09/22 12:57:49;;;;;;;1.80;1.40;;;;;;;;;;12890970;22;20112;-79
2022/09/22 13:02:49;;;;;;;2.20;1.33;;;;;;;;;;12924426;23;20039;-79
2022/09/22 13:07:51;;;;;;;1.33;1.23;;;;;;;;;;12921379;23;20432;-80
2022/09/22 13:18:26;;;;;;;2.05;1.15;;;;;;;;;;12919766;23;20370;-80
2022/09/22 13:23:26;;;;;;;1.65;1.08;;;;;;;;;;12891576;23;20039;-79
2022/09/22 13:28:27;;;;;;;2.30;1.40;;;;;;;;;;12916777;23;20039;-78
2022/09/22 13:33:31;;;;;;;1.33;1.23;;;;;;;;;;12915845;23;20282;-80
2022/09/22 13:38:37;;;;;;;1.20;1.10;;;;;;;;;;12916311;23;20015;-78
2022/09/22 13:43:38;;;;;;;1.55;1.45;;;;;;;;;;12889568;23;20419;-77
2022/09/22 13:48:39;;;;;;;2.15;1.55;;;;;;;;;;12916929;23;20335;-80
2022/09/22 13:53:43;;;;;;;1.75;1.27;;;;;;;;;;12920032;23;20018;-82
2022/09/22 13:58:44;;;;;;;1.60;1.30;;;;;;;;;;12895232;23;20328;-82
2022/09/22 14:03:45;;;;;;;1.42;1.33;;;;;;;;;;12920234;22;20091;-80
2022/09/22 14:08:47;;;;;;;1.90;1.30;;;;;;;;;;12933655;23;20019;-80
2022/09/22 14:14:02;;;;;;;1.50;1.40;;;;;;;;;;12940776;23;20023;-81
2022/09/22 14:19:07;;;;;;;1.52;1.08;;;;;;;;;;12936395;23;20036;-81
2022/09/22 14:24:10;;;;;;;1.48;1.25;;;;;;;;;;12907549;23;20427;-80
2022/09/22 14:29:15;;;;;;;1.05;1.02;;;;;;;;;;12927148;23;20020;-79
2022/09/22 14:34:26;;;;;;;1.52;1.20;;;;;;;;;;12903947;23;20012;-81
2022/09/22 14:39:32;;;;;;;1.52;1.20;;;;;;;;;;12903932;23;20031;-81
2022/09/22 14:44:34;;;;;;;1.55;1.10;;;;;;;;;;12908878;23;20010;-78
2022/09/22 14:49:36;;;;;;;1.63;1.20;;;;;;;;;;12954657;23;20023;-81
2022/09/22 14:54:38;;;;;;;1.13;1.02;;;;;;;;;;12954770;23;20024;-80
2022/09/22 15:05:02;;;;;;;1.75;1.20;;;;;;;;;;12948829;23;20239;-82
2022/09/22 15:10:16;;;;;;;1.30;1.20;;;;;;;;;;12947558;23;20039;-82
2022/09/22 15:15:28;;;;;;;1.77;1.23;;;;;;;;;;12933431;22;20012;-79
2022/09/22 15:20:43;;;;;;;2.60;1.30;;;;;;;;;;12934988;22;20012;-79
2022/09/22 15:25:45;;;;;;;1.20;1.10;;;;;;;;;;12916110;23;20012;-77
2022/09/22 15:30:47;;;;;;;2.10;1.30;;;;;;;;;;12916590;23;20154;-76
2022/09/22 15:35:55;;;;;;;2.70;1.40;;;;;;;;;;12918728;23;20331;-77
2022/09/22 15:40:56;;;;;;;1.73;1.35;;;;;;;;;;12919052;23;20008;-78
2022/09/22 15:46:02;;;;;;;2.00;1.55;;;;;;;;;;12918377;23;20015;-77
2022/09/22 15:51:04;;;;;;;2.60;1.90;;;;;;;;;;12921985;23;20482;-82
2022/09/22 15:56:10;;;;;;;1.30;1.20;;;;;;;;;;12899723;23;20425;-83
2022/09/22 16:01:10;;;;;;;2.45;1.27;;;;;;;;;;12929627;22;20004;-82
2022/09/22 16:06:11;;;;;;;1.90;1.20;;;;;;;;;;12941501;23;20434;-80
2022/09/22 16:11:13;;;;;;;1.25;1.15;;;;;;;;;;12944645;22;20258;-79
2022/09/22 16:16:13;;;;;;;1.67;1.20;;;;;;;;;;12946658;22;20009;-79
2022/09/22 16:21:20;;;;;;;1.30;1.20;;;;;;;;;;12929649;23;20079;-81
2022/09/22 16:26:22;;;;;;;1.95;1.33;;;;;;;;;;12924487;22;20039;-81
2022/09/22 16:31:22;;;;;;;1.67;1.40;;;;;;;;;;12926323;22;20012;-80
2022/09/22 16:36:24;;;;;;;1.45;1.35;;;;;;;;;;12930008;23;20015;-83
2022/09/22 16:41:26;;;;;;;1.90;1.35;;;;;;;;;;12923769;22;20012;-80
2022/09/22 16:46:28;;;;;;;1.77;1.33;;;;;;;;;;12917627;23;20027;-79
2022/09/22 16:51:29;;;;;;;3.20;2.80;;;;;;;;;;12894409;23;20440;-81
2022/09/22 16:56:31;;;;;;;2.88;2.58;;;;;;;;;;12924245;23;20016;-80
2022/09/22 17:01:35;;;;;;;3.97;2.85;;;;;;;;;;12928363;23;20016;-82
2022/09/22 17:06:37;;;;;;;3.33;2.20;;;;;;;;;;12923192;23;20085;-82
2022/09/22 17:11:39;;;;;;;3.03;2.08;;;;;;;;;;12874058;23;20515;-80
2022/09/22 17:16:40;;;;;;;2.60;2.10;;;;;;;;;;12892973;23;20272;-80
2022/09/22 17:21:41;;;;;;;5.50;3.83;;;;;;;;;;12895369;23;20087;-79
2022/09/22 17:26:49;;;;;;;4.40;3.55;;;;;;;;;;12867597;23;20012;-77
2022/09/22 17:31:50;;;;;;;3.05;2.67;;;;;;;;;;12924703;23;20019;-81
2022/09/22 17:36:54;;;;;;;3.92;3.53;;;;;;;;;;12901460;23;20012;-80
2022/09/22 17:41:55;;;;;;;4.15;3.40;;;;;;;;;;12917560;23;20042;-80
2022/09/22 17:57:29;;;;;;;5.13;3.50;;;;;;;;;;12945202;23;20008;-80
2022/09/22 18:02:39;;;;;;;5.40;3.13;;;;;;;;;;12942896;23;20043;-81
2022/09/22 18:07:42;;;;;;;5.00;2.67;;;;;;;;;;12946472;23;20110;-82
2022/09/22 18:12:43;;;;;;;2.67;2.30;;;;;;;;;;12957491;23;20022;-79
2022/09/22 18:17:43;;;;;;;3.65;3.33;;;;;;;;;;12976748;22;20038;-81
2022/09/22 18:22:47;;;;;;;3.75;2.70;;;;;;;;;;12919166;22;20000;-82
2022/09/22 18:27:53;;;;;;;2.92;2.33;;;;;;;;;;12888999;22;20012;-80
2022/09/22 18:32:55;;;;;;;;;;;;;;;;;;12917891;22;20013;-79
2022/09/22 18:37:55;;;;;;;3.75;2.67;;;;;;;;;;12917058;22;19965;-80
2022/09/22 18:42:56;;;;;;;3.20;2.40;;;;;;;;;;12890830;22;20000;-82
2022/09/22 18:47:58;;;;;;;3.30;2.30;;;;;;;;;;12916514;22;20266;-81
2022/09/22 18:52:58;;;;;;;2.50;2.30;;;;;;;;;;12882420;23;20035;-81
2022/09/22 18:57:58;;;;;;;2.70;2.20;;;;;;;;;;12892617;22;20102;-79
2022/09/22 19:03:23;;;;;;;3.38;2.83;;;;;;;;;;12859497;22;20012;-85
2022/09/22 19:08:43;;;;;;;6.97;3.90;;;;;;;;;;12979539;22;20038;-83
2022/09/22 19:13:43;;;;;;;4.65;3.20;;;;;;;;;;12972923;22;19996;-81
2022/09/22 19:18:47;;;;;;;6.97;3.90;;;;;;;;;;12964820;23;20012;-83
2022/09/22 19:23:47;;;;;;;;;;;;;;;;;;12972939;22;20000;-82
2022/09/22 19:29:02;;;;;;;4.57;3.63;;;;;;;;;;12970852;22;19922;-84
2022/09/22 19:34:06;;;;;;;4.93;4.05;;;;;;;;;;12971476;22;20020;-86
2022/09/22 19:39:07;;;;;;;;;;;;;;;;;;12970354;22;20012;-83
2022/09/22 19:44:14;;;;;;;6.28;4.38;;;;;;;;;;12945871;23;19955;-83
2022/09/22 19:49:15;;;;;;;5.55;5.03;;;;;;;;;;12948715;22;20044;-85
2022/09/22 19:54:15;;;;;;;7.15;5.20;;;;;;;;;;12948887;23;20075;-83
2022/09/22 19:59:18;;;;;;;6.47;5.07;;;;;;;;;;12944758;22;20015;-81
2022/09/22 20:04:22;;;;;;;8.85;5.57;;;;;;;;;;12968621;22;20019;-82
2022/09/22 20:09:24;;;;;;;5.73;4.97;;;;;;;;;;12965484;22;20083;-82
2022/09/22 20:14:26;;;;;;;7.50;5.50;;;;;;;;;;12966654;22;20234;-78
2022/09/22 20:19:27;;;;;;;6.55;5.57;;;;;;;;;;13001561;22;20030;-81
2022/09/22 20:24:28;;;;;;;8.30;5.80;;;;;;;;;;12973020;22;20097;-79
2022/09/22 20:29:32;;;;;;;9.77;7.53;;;;;;;;;;12967995;22;20026;-82
2022/09/22 20:34:33;;;;;;;6.50;5.80;;;;;;;;;;12938267;22;20018;-82
2022/09/22 20:39:33;;;;;;;7.50;5.93;;;;;;;;;;12980332;22;20247;-83
2022/09/22 20:44:37;;;;;;;10.33;7.00;;;;;;;;;;12992687;22;20035;-83
2022/09/22 20:49:39;;;;;;;10.52;7.00;;;;;;;;;;13007667;22;20253;-80
2022/09/22 20:54:41;;;;;;;11.02;7.10;;;;;;;;;;12999065;22;20012;-82
2022/09/22 20:59:44;;;;;;;10.10;7.03;;;;;;;;;;12988417;22;19996;-81
2022/09/22 21:04:44;;;;;;;9.27;7.93;;;;;;;;;;13033191;22;20098;-82
2022/09/22 21:15:04;;;;;;;10.55;7.78;;;;;;;;;;12988950;22;20234;-81
2022/09/22 21:20:06;;;;;;;9.45;7.28;;;;;;;;;;12969862;22;20018;-82
2022/09/22 21:25:06;;;;;;;10.75;8.00;;;;;;;;;;12988853;22;20016;-78
2022/09/22 21:30:07;;;;;;;9.85;7.70;;;;;;;;;;12988501;22;20409;-81
2022/09/22 21:35:07;;;;;;;10.40;7.03;;;;;;;;;;12960404;22;20026;-80
2022/09/22 21:40:08;;;;;;;10.77;7.75;;;;;;;;;;12992433;22;20012;-83
2022/09/22 21:45:08;;;;;;;8.52;7.47;;;;;;;;;;12998492;22;20340;-81
2022/09/22 21:50:09;;;;;;;8.35;6.95;;;;;;;;;;12968265;22;20030;-79
2022/09/22 21:55:09;;;;;;;9.97;7.60;;;;;;;;;;12980507;22;20012;-80
2022/09/22 22:00:10;;;;;;;9.07;7.47;;;;;;;;;;13006896;22;20015;-83
2022/09/22 22:05:13;;;;;;;8.20;6.82;;;;;;;;;;12977127;22;20262;-82
2022/09/22 22:10:14;;;;;;;12.13;8.55;;;;;;;;;;13005024;22;20047;-82
2022/09/22 22:15:15;;;;;;;10.02;8.27;;;;;;;;;;12970899;22;20016;-81
2022/09/22 22:20:15;;;;;;;10.20;8.77;;;;;;;;;;12963197;22;20034;-80
2022/09/22 22:25:18;;;;;;;13.02;8.70;;;;;;;;;;12968463;22;20015;-79
2022/09/22 22:30:18;;;;;;;14.00;8.87;;;;;;;;;;12957444;22;20016;-80
2022/09/22 22:35:19;;;;;;;9.87;8.07;;;;;;;;;;12958106;22;20104;-82
2022/09/22 22:40:19;;;;;;;9.67;8.13;;;;;;;;;;12983616;22;20245;-81
2022/09/22 22:45:19;;;;;;;16.20;9.13;;;;;;;;;;12986666;22;20805;-82
2022/09/22 22:50:19;;;;;;;9.93;7.60;;;;;;;;;;12990184;22;20732;-80
2022/09/22 22:55:20;;;;;;;8.73;6.70;;;;;;;;;;12986462;22;20008;-79
2022/09/22 23:00:21;;;;;;;8.93;7.47;;;;;;;;;;12955765;22;20242;-79
2022/09/22 23:05:21;;;;;;;8.55;6.95;;;;;;;;;;12989089;22;20342;-81
2022/09/22 23:10:21;;;;;;;9.57;7.10;;;;;;;;;;12966119;22;20024;-81
2022/09/22 23:15:22;;;;;;;10.63;6.87;;;;;;;;;;12975857;22;20012;-79
2022/09/22 23:20:24;;;;;;;9.60;6.90;;;;;;;;;;12965965;22;20250;-78
2022/09/22 23:25:24;;;;;;;9.43;6.90;;;;;;;;;;12983879;22;20011;-77
2022/09/22 23:30:24;;;;;;;7.00;6.17;;;;;;;;;;12969045;22;20098;-77
2022/09/22 23:35:25;;;;;;;8.80;6.27;;;;;;;;;;13006745;22;20011;-78
2022/09/22 23:40:25;;;;;;;7.07;6.38;;;;;;;;;;13006982;22;20258;-79
2022/09/22 23:45:28;;;;;;;7.50;6.60;;;;;;;;;;12970470;22;20058;-81
2022/09/22 23:50:31;;;;;;;9.57;6.25;;;;;;;;;;13013389;22;20011;-79
2022/09/22 23:55:31;;;;;;;6.22;5.28;;;;;;;;;;12978669;22;20007;-78
